createdAt,value
2023-04-19T00:01:13.695Z,12.51
2023-04-19T00:02:41.618Z,12.49
2023-04-19T00:04:04.400Z,12.49
2023-04-19T00:05:28.431Z,12.48
2023-04-19T00:06:54.092Z,12.47
2023-04-19T00:08:19.299Z,12.48
2023-04-19T00:09:40.797Z,12.48
2023-04-19T00:11:38.571Z,12.42
2023-04-19T00:13:05.358Z,12.45
2023-04-19T00:14:30.925Z,12.41
2023-04-19T00:15:54.686Z,12.43
2023-04-19T00:19:22.846Z,12.36
2023-04-19T00:20:52.707Z,12.36
2023-04-19T00:22:20.336Z,12.35
2023-04-19T00:23:43.795Z,12.35
2023-04-19T00:25:05.322Z,12.32
2023-04-19T00:26:30.327Z,12.31
2023-04-19T00:27:52.856Z,12.32
2023-04-19T00:29:16.388Z,12.26
2023-04-19T00:30:37.734Z,12.25
2023-04-19T00:31:59.972Z,12.25
2023-04-19T00:33:22.963Z,12.25
2023-04-19T00:34:45.091Z,12.20
2023-04-19T00:36:12.908Z,12.21
2023-04-19T00:37:45.453Z,12.13
2023-04-19T00:39:09.179Z,12.19
2023-04-19T00:40:37.507Z,12.11
2023-04-19T00:42:01.572Z,12.14
2023-04-19T00:44:06.321Z,12.12
2023-04-19T00:45:33.688Z,12.02
2023-04-19T00:47:22.813Z,12.04
2023-04-19T00:48:52.374Z,12.06
2023-04-19T00:50:14.297Z,11.99
2023-04-19T00:51:40.882Z,12.00
2023-04-19T00:53:04.973Z,11.96
2023-04-19T00:54:27.253Z,11.99
2023-04-19T00:55:51.074Z,12.01
2023-04-19T00:57:19.080Z,11.93
2023-04-19T00:58:41.767Z,11.98
2023-04-19T01:00:06.353Z,11.98
2023-04-19T01:01:28.972Z,11.97
2023-04-19T01:02:50.216Z,11.97
2023-04-19T01:04:17.796Z,11.97
2023-04-19T01:05:42.178Z,11.92
2023-04-19T01:07:09.332Z,11.91
2023-04-19T01:08:31.399Z,11.89
2023-04-19T01:09:52.498Z,11.85
2023-04-19T01:11:16.962Z,11.84
2023-04-19T01:12:40.743Z,11.81
2023-04-19T01:14:01.726Z,11.77
2023-04-19T01:15:30.100Z,11.74
2023-04-19T01:16:51.891Z,11.74
2023-04-19T01:18:14.201Z,11.73
2023-04-19T01:19:41.825Z,11.68
2023-04-19T01:21:13.103Z,11.69
2023-04-19T01:22:42.748Z,11.65
2023-04-19T01:26:24.927Z,11.58
2023-04-19T01:27:46.186Z,11.57
2023-04-19T01:29:08.152Z,11.54
2023-04-19T01:30:29.580Z,11.54
2023-04-19T01:31:54.096Z,11.53
2023-04-19T01:33:18.549Z,11.51
2023-04-19T01:34:43.026Z,11.50
2023-04-19T01:36:05.992Z,11.48
2023-04-19T01:37:31.653Z,11.48
2023-04-19T01:38:55.861Z,11.45
2023-04-19T01:40:19.202Z,11.41
2023-04-19T01:41:40.668Z,11.40
2023-04-19T01:43:05.306Z,11.41
2023-04-19T01:44:29.298Z,11.40
2023-04-19T01:45:51.750Z,11.38
2023-04-19T01:47:16.615Z,11.37
2023-04-19T01:48:41.934Z,11.35
2023-04-19T01:50:04.332Z,11.35
2023-04-19T01:52:24.674Z,11.21
2023-04-19T01:53:47.326Z,11.29
2023-04-19T01:55:11.308Z,11.29
2023-04-19T01:56:35.556Z,11.28
2023-04-19T01:57:58.819Z,11.22
2023-04-19T01:59:20.250Z,11.20
2023-04-19T02:00:43.176Z,11.21
2023-04-19T02:02:11.972Z,11.20
2023-04-19T02:03:36.076Z,11.20
2023-04-19T02:05:02.265Z,11.17
2023-04-19T02:06:23.598Z,11.15
2023-04-19T02:07:46.586Z,11.13
2023-04-19T02:09:08.666Z,11.11
2023-04-19T02:10:32.445Z,11.08
2023-04-19T02:11:53.400Z,11.07
2023-04-19T02:13:17.073Z,11.06
2023-04-19T02:14:42.288Z,11.03
2023-04-19T02:16:06.277Z,11.00
2023-04-19T02:17:29.166Z,11.02
2023-04-19T02:18:52.356Z,10.97
2023-04-19T02:20:14.604Z,10.99
2023-04-19T02:21:35.212Z,10.97
2023-04-19T02:22:57.459Z,10.91
2023-04-19T02:24:18.363Z,10.95
2023-04-19T02:25:42.270Z,10.94
2023-04-19T02:27:04.659Z,10.88
2023-04-19T02:28:27.281Z,10.89
2023-04-19T02:29:49.836Z,10.86
2023-04-19T02:31:11.254Z,10.89
2023-04-19T02:32:33.722Z,10.85
2023-04-19T02:33:55.218Z,10.88
2023-04-19T02:35:18.029Z,10.90
2023-04-19T02:36:39.456Z,10.90
2023-04-19T02:38:02.067Z,10.90
2023-04-19T02:39:24.229Z,10.86
2023-04-19T02:40:46.245Z,10.82
2023-04-19T02:42:11.232Z,10.82
2023-04-19T02:43:33.404Z,10.82
2023-04-19T02:44:56.062Z,10.78
2023-04-19T02:46:19.725Z,10.74
2023-04-19T02:47:42.194Z,10.75
2023-04-19T02:49:11.911Z,10.74
2023-04-19T02:50:38.654Z,10.72
2023-04-19T02:52:04.283Z,10.72
2023-04-19T02:53:28.614Z,10.69
2023-04-19T02:54:55.952Z,10.66
2023-04-19T02:56:28.897Z,10.60
2023-04-19T02:57:50.398Z,10.62
2023-04-19T02:59:40.164Z,10.62
2023-04-19T03:01:03.930Z,10.53
2023-04-19T03:02:32.862Z,10.58
2023-04-19T03:04:11.164Z,10.51
2023-04-19T03:05:41.598Z,10.59
2023-04-19T03:07:03.902Z,10.59
2023-04-19T03:08:27.830Z,10.60
2023-04-19T03:09:55.901Z,10.60
2023-04-19T03:11:18.845Z,10.60
2023-04-19T03:12:45.940Z,10.54
2023-04-19T03:14:10.001Z,10.60
2023-04-19T03:15:36.653Z,10.63
2023-04-19T03:16:59.050Z,10.64
2023-04-19T03:18:21.036Z,10.65
2023-04-19T03:19:43.462Z,10.65
2023-04-19T03:21:08.990Z,10.65
2023-04-19T03:22:48.432Z,10.64
2023-04-19T03:24:11.254Z,10.63
2023-04-19T03:26:36.759Z,10.55
2023-04-19T03:28:03.779Z,10.59
2023-04-19T03:29:49.207Z,10.55
2023-04-19T03:31:11.815Z,10.52
2023-04-19T03:32:35.003Z,10.47
2023-04-19T03:33:56.644Z,10.47
2023-04-19T03:35:26.410Z,10.47
2023-04-19T03:36:50.886Z,10.45
2023-04-19T03:38:13.209Z,10.43
2023-04-19T03:39:38.372Z,10.41
2023-04-19T03:41:04.869Z,10.41
2023-04-19T03:42:32.486Z,10.39
2023-04-19T03:44:21.030Z,10.37
2023-04-19T03:45:43.948Z,10.31
2023-04-19T03:47:09.108Z,10.31
2023-04-19T03:48:36.657Z,10.32
2023-04-19T03:49:59.069Z,10.33
2023-04-19T03:51:22.023Z,10.31
2023-04-19T03:52:44.541Z,10.25
2023-04-19T03:54:08.778Z,10.30
2023-04-19T03:55:32.664Z,10.24
2023-04-19T03:56:57.491Z,10.31
2023-04-19T03:58:22.854Z,10.30
2023-04-19T03:59:53.425Z,10.28
2023-04-19T04:03:50.277Z,10.20
2023-04-19T04:05:18.265Z,10.15
2023-04-19T04:06:46.245Z,10.14
2023-04-19T04:08:14.101Z,10.08
2023-04-19T04:09:50.319Z,10.17
2023-04-19T04:11:15.452Z,10.08
2023-04-19T04:12:40.963Z,10.09
2023-04-19T04:14:16.721Z,10.07
2023-04-19T04:15:52.953Z,10.08
2023-04-19T04:17:45.015Z,9.96
2023-04-19T04:19:13.994Z,9.97
2023-04-19T04:20:58.130Z,9.96
2023-04-19T04:23:01.657Z,9.92
2023-04-19T04:24:27.333Z,9.83
2023-04-19T04:28:08.719Z,9.54
2023-04-19T04:29:29.871Z,9.34
2023-04-19T04:31:07.932Z,9.27
2023-04-19T04:32:31.324Z,9.16
2023-04-19T04:33:56.624Z,9.05
2023-04-19T04:35:20.889Z,8.97
2023-04-19T04:36:51.968Z,8.86
2023-04-19T04:38:24.080Z,8.76
2023-04-19T04:39:48.493Z,8.71
2023-04-19T04:41:10.830Z,8.62
2023-04-19T04:42:33.677Z,8.57
2023-04-19T04:44:11.578Z,8.52
2023-04-19T04:45:35.609Z,8.47
2023-04-19T04:47:02.179Z,8.38
2023-04-19T04:48:27.339Z,8.34
2023-04-19T04:50:01.023Z,8.31
2023-04-19T04:51:51.407Z,8.22
2023-04-19T04:53:30.723Z,8.20
2023-04-19T04:55:15.002Z,8.12
2023-04-19T04:56:50.424Z,8.10
2023-04-19T04:58:13.353Z,8.10
2023-04-19T05:00:36.874Z,8.04
2023-04-19T05:02:15.315Z,8.06
2023-04-19T05:03:40.811Z,8.05
2023-04-19T05:05:15.090Z,8.04
2023-04-19T05:06:41.314Z,8.08
2023-04-19T05:08:08.096Z,8.11
2023-04-19T05:09:31.964Z,8.08
2023-04-19T05:11:42.160Z,8.13
2023-04-19T05:13:04.293Z,8.13
2023-04-19T05:14:42.810Z,8.10
2023-04-19T05:16:22.819Z,8.13
2023-04-19T05:18:05.306Z,8.11
2023-04-19T05:19:34.502Z,8.22
2023-04-19T05:21:05.353Z,8.27
2023-04-19T05:22:30.673Z,8.26
2023-04-19T05:24:05.648Z,8.26
2023-04-19T05:25:36.154Z,8.31
2023-04-19T05:27:22.588Z,8.34
2023-04-19T05:29:06.590Z,8.28
2023-04-19T05:30:56.160Z,8.33
2023-04-19T05:32:42.805Z,8.27
2023-04-19T05:34:37.997Z,8.31
2023-04-19T05:36:22.551Z,8.39
2023-04-19T05:37:59.270Z,8.37
2023-04-19T05:39:29.836Z,8.37
2023-04-19T05:40:57.597Z,8.49
2023-04-19T05:42:27.727Z,8.50
2023-04-19T05:43:52.153Z,8.53
2023-04-19T05:45:22.486Z,8.67
2023-04-19T05:46:43.970Z,8.70
2023-04-19T05:48:17.572Z,8.67
2023-04-19T05:50:15.216Z,8.66
2023-04-19T05:51:50.608Z,8.77
2023-04-19T05:53:29.888Z,8.79
2023-04-19T05:54:56.741Z,8.72
2023-04-19T05:56:25.045Z,8.74
2023-04-19T05:57:47.987Z,8.82
2023-04-19T05:59:14.202Z,8.93
2023-04-19T06:00:39.820Z,8.95
2023-04-19T06:02:19.207Z,9.02
2023-04-19T06:03:56.080Z,9.14
2023-04-19T06:05:43.767Z,9.16
2023-04-19T06:07:22.278Z,9.32
2023-04-19T06:08:55.026Z,9.44
2023-04-19T06:10:44.575Z,9.56
2023-04-19T06:12:24.188Z,9.69
2023-04-19T06:14:51.860Z,9.70
2023-04-19T06:32:09.299Z,10.37
2023-04-19T06:34:28.043Z,10.47
2023-04-19T06:36:21.278Z,10.70
2023-04-19T06:37:45.503Z,10.87
2023-04-19T06:42:26.275Z,11.53
2023-04-19T06:43:49.239Z,11.93
2023-04-19T06:45:52.532Z,12.17
2023-04-19T06:47:50.018Z,12.48
2023-04-19T06:49:18.599Z,13.02
2023-04-19T06:50:43.391Z,13.20
2023-04-19T06:52:09.936Z,13.04
2023-04-19T06:53:31.130Z,12.99
2023-04-19T06:56:45.889Z,13.27
2023-04-19T06:58:11.226Z,13.47
2023-04-19T07:00:12.890Z,13.78
2023-04-19T07:08:46.248Z,14.39
2023-04-19T07:10:23.852Z,14.67
2023-04-19T07:12:27.976Z,15.02
2023-04-19T07:16:54.111Z,15.14
2023-04-19T07:18:42.995Z,15.35
2023-04-19T07:20:49.211Z,15.70
2023-04-19T07:22:43.090Z,15.73
2023-04-19T07:24:12.973Z,15.79
2023-04-19T07:25:46.581Z,15.86
2023-04-19T07:27:08.968Z,15.83
2023-04-19T07:29:08.587Z,15.67
2023-04-19T07:30:47.570Z,15.72
2023-04-19T07:32:17.779Z,15.98
2023-04-19T07:34:33.690Z,16.04
2023-04-19T07:36:05.239Z,16.36
2023-04-19T07:37:28.242Z,16.55
2023-04-19T07:38:51.793Z,17.09
2023-04-19T07:40:22.097Z,17.41
2023-04-19T07:42:04.069Z,17.54
2023-04-19T07:43:44.322Z,17.36
2023-04-19T07:45:46.132Z,17.33
2023-04-19T07:47:12.334Z,17.48
2023-04-19T07:49:28.162Z,17.67
2023-04-19T08:19:31.376Z,32.11
2023-04-19T08:21:07.971Z,32.16
2023-04-19T08:23:29.699Z,33.06
2023-04-19T08:39:29.358Z,22.72
2023-04-19T08:41:23.464Z,21.48
2023-04-19T08:43:38.107Z,20.55
2023-04-19T08:45:32.361Z,19.39
2023-04-19T08:47:32.305Z,18.81
2023-04-19T08:49:07.742Z,18.06
2023-04-19T08:51:00.598Z,17.48
2023-04-19T08:53:21.096Z,16.82
2023-04-19T08:56:12.821Z,16.07
2023-04-19T08:58:28.385Z,15.51
2023-04-19T09:00:15.799Z,15.38
2023-04-19T09:02:02.597Z,15.24
2023-04-19T09:03:36.355Z,15.28
2023-04-19T09:05:03.387Z,15.20
2023-04-19T09:06:29.605Z,15.34
2023-04-19T09:07:56.748Z,15.44
2023-04-19T09:11:27.444Z,15.30
2023-04-19T09:13:02.966Z,15.31
2023-04-19T09:39:52.075Z,15.50
2023-04-19T09:41:17.680Z,15.45
2023-04-19T09:43:53.335Z,15.32
2023-04-19T09:47:43.407Z,14.92
2023-04-19T09:51:18.539Z,15.00
2023-04-19T09:53:32.981Z,15.09
2023-04-19T09:55:25.005Z,15.29
2023-04-19T09:57:12.507Z,15.38
2023-04-19T09:59:11.979Z,15.46
2023-04-19T10:00:48.893Z,15.48
2023-04-19T10:02:15.768Z,15.30
2023-04-19T10:03:46.521Z,15.14
2023-04-19T10:05:57.358Z,14.91
2023-04-19T10:07:30.071Z,14.64
2023-04-19T10:09:00.165Z,14.49
2023-04-19T10:13:07.391Z,14.14
2023-04-19T10:14:27.730Z,13.86
2023-04-19T10:16:45.108Z,13.82
2023-04-19T10:18:16.917Z,13.76
2023-04-19T10:19:44.648Z,13.67
2023-04-19T10:21:17.335Z,13.53
2023-04-19T10:22:40.683Z,13.41
2023-04-19T10:24:08.881Z,13.47
2023-04-19T10:25:37.977Z,13.44
2023-04-19T10:27:34.596Z,13.44
2023-04-19T10:29:09.052Z,13.58
2023-04-19T10:30:36.243Z,13.78
2023-04-19T10:31:59.159Z,13.95
2023-04-19T10:33:37.807Z,14.03
2023-04-19T10:35:04.456Z,14.13
2023-04-19T10:36:29.111Z,14.16
2023-04-19T10:38:13.669Z,14.20
2023-04-19T10:39:42.484Z,14.31
2023-04-19T10:41:18.806Z,14.47
2023-04-19T10:43:21.308Z,14.56
2023-04-19T10:44:43.975Z,14.52
2023-04-19T10:46:42.326Z,14.35
2023-04-19T10:48:17.872Z,14.35
2023-04-19T10:49:58.725Z,14.27
2023-04-19T10:51:44.463Z,14.20
2023-04-19T10:53:43.825Z,14.21
2023-04-19T11:04:43.533Z,14.38
2023-04-19T11:21:55.820Z,13.10
2023-04-19T11:24:16.338Z,12.94
2023-04-19T11:37:53.417Z,12.38
2023-04-19T11:42:18.084Z,12.33
2023-04-19T11:43:52.623Z,12.14
2023-04-19T11:45:40.091Z,12.10
2023-04-19T11:47:08.511Z,12.01
2023-04-19T11:49:59.089Z,11.85
2023-04-19T11:51:27.417Z,11.78
2023-04-19T11:52:57.697Z,11.70
2023-04-19T12:07:37.085Z,11.01
2023-04-19T12:09:30.525Z,10.96
2023-04-19T12:12:37.326Z,10.94
2023-04-19T12:14:39.333Z,11.01
2023-04-19T12:19:29.024Z,11.11
2023-04-19T12:27:52.922Z,11.15
2023-04-19T12:33:06.678Z,11.15
2023-04-19T12:34:32.535Z,11.09
2023-04-19T12:35:56.730Z,11.07
2023-04-19T12:37:22.793Z,11.12
2023-04-19T12:38:56.451Z,11.10
2023-04-19T12:40:36.487Z,10.99
2023-04-19T12:44:43.831Z,10.97
2023-04-19T12:46:24.133Z,10.94
2023-04-19T12:47:58.208Z,10.94
2023-04-19T12:49:48.358Z,10.94
2023-04-19T12:51:25.095Z,10.86
2023-04-19T12:53:39.406Z,10.91
2023-04-19T12:59:30.284Z,10.70
2023-04-19T13:01:55.945Z,10.74
2023-04-19T13:06:24.843Z,10.66
2023-04-19T13:08:14.805Z,10.61
2023-04-19T13:09:40.170Z,10.63
2023-04-19T13:13:25.911Z,10.59
2023-04-19T13:31:27.030Z,10.77
2023-04-19T14:26:18.930Z,11.35
2023-04-19T14:28:05.123Z,11.40
2023-04-19T14:29:36.048Z,11.40
2023-04-19T14:31:17.495Z,11.47
2023-04-19T14:32:52.184Z,11.56
2023-04-19T14:34:16.985Z,11.70
2023-04-19T14:36:01.663Z,11.86
2023-04-19T14:37:48.007Z,11.93
2023-04-19T14:42:37.535Z,12.06
2023-04-19T14:44:02.855Z,12.09
2023-04-19T14:45:28.091Z,12.13
2023-04-19T14:46:50.838Z,12.13
2023-04-19T14:56:12.392Z,12.35
2023-04-19T14:59:05.715Z,12.44
2023-04-19T15:00:15.891Z,12.53
2023-04-19T15:06:03.005Z,12.69
2023-04-19T15:10:11.220Z,12.85
2023-04-19T15:11:35.126Z,12.86
2023-04-19T15:14:43.515Z,13.01
2023-04-19T15:16:37.572Z,13.08
2023-04-19T15:18:00.348Z,13.06
2023-04-19T15:19:22.904Z,13.17
2023-04-19T15:20:45.142Z,13.19
2023-04-19T15:22:07.312Z,13.14
2023-04-19T15:23:28.305Z,13.11
2023-04-19T15:24:53.040Z,13.00
2023-04-19T15:26:15.368Z,13.01
2023-04-19T15:27:39.250Z,12.94
2023-04-19T15:29:04.131Z,12.97
2023-04-19T15:30:26.471Z,12.88
2023-04-19T15:31:53.291Z,12.97
2023-04-19T15:33:21.368Z,12.96
2023-04-19T15:37:48.624Z,12.83
2023-04-19T15:39:21.199Z,12.65
2023-04-19T15:40:54.856Z,12.69
2023-04-19T15:46:21.316Z,12.53
2023-04-19T15:47:50.085Z,12.49
2023-04-19T15:49:12.566Z,12.43
2023-04-19T15:50:42.295Z,12.45
2023-04-19T15:52:11.254Z,12.41
2023-04-19T15:53:35.681Z,12.37
2023-04-19T15:55:08.457Z,12.38
2023-04-19T15:56:31.533Z,12.47
2023-04-19T15:59:39.797Z,12.47
2023-04-19T16:01:03.804Z,12.50
2023-04-19T16:02:26.557Z,12.50
2023-04-19T16:03:48.848Z,12.48
2023-04-19T16:05:25.288Z,12.46
2023-04-19T16:06:53.382Z,12.33
2023-04-19T16:08:36.485Z,12.38
2023-04-19T16:10:06.279Z,12.32
2023-04-19T16:11:32.595Z,12.34
2023-04-19T16:13:08.323Z,12.28
2023-04-19T16:14:32.560Z,12.32
2023-04-19T16:15:57.380Z,12.26
2023-04-19T16:17:36.248Z,12.19
2023-04-19T16:18:59.886Z,12.09
2023-04-19T16:20:56.113Z,11.95
2023-04-19T16:23:23.652Z,11.81
2023-04-19T16:24:54.925Z,11.70
2023-04-19T16:26:28.125Z,11.64
2023-04-19T16:27:52.960Z,11.56
2023-04-19T16:29:50.444Z,11.50
2023-04-19T16:31:46.431Z,11.28
2023-04-19T16:34:18.059Z,11.14
2023-04-19T16:37:50.483Z,11.01
2023-04-19T16:39:14.583Z,11.03
2023-04-19T16:40:39.763Z,11.01
2023-04-19T16:42:06.808Z,10.97
2023-04-19T16:43:31.885Z,10.95
2023-04-19T16:45:31.182Z,10.82
2023-04-19T16:47:09.139Z,10.85
2023-04-19T16:48:37.845Z,10.77
2023-04-19T16:50:02.419Z,10.81
2023-04-19T16:51:35.218Z,10.83
2023-04-19T16:55:35.447Z,10.75
2023-04-19T16:58:42.474Z,10.70
2023-04-19T17:00:13.298Z,10.66
2023-04-19T17:01:40.324Z,10.65
2023-04-19T17:03:02.035Z,10.61
2023-04-19T17:04:44.939Z,10.56
2023-04-19T17:08:33.844Z,10.48
2023-04-19T17:10:42.038Z,10.49
2023-04-19T17:12:13.318Z,10.46
2023-04-19T17:13:43.001Z,10.47
2023-04-19T17:15:16.063Z,10.38
2023-04-19T17:17:34.419Z,10.41
2023-04-19T17:19:29.140Z,10.36
2023-04-19T17:20:53.653Z,10.40
2023-04-19T17:22:39.078Z,10.40
2023-04-19T17:24:25.003Z,10.32
2023-04-19T17:25:57.713Z,10.30
2023-04-19T17:29:25.727Z,10.32
2023-04-19T17:30:55.882Z,10.30
2023-04-19T17:32:18.273Z,10.26
2023-04-19T17:33:45.654Z,10.25
2023-04-19T17:35:13.399Z,10.32
2023-04-19T17:36:38.103Z,10.28
2023-04-19T17:38:03.966Z,10.23
2023-04-19T17:39:36.984Z,10.26
2023-04-19T17:40:59.419Z,10.25
2023-04-19T17:42:21.576Z,10.26
2023-04-19T17:43:44.004Z,10.25
2023-04-19T17:45:11.113Z,10.24
2023-04-19T17:46:33.280Z,10.24
2023-04-19T17:47:56.390Z,10.21
2023-04-19T17:49:20.255Z,10.21
2023-04-19T17:50:44.641Z,10.17
2023-04-19T17:52:11.643Z,10.19
2023-04-19T17:53:46.459Z,10.12
2023-04-19T17:55:09.605Z,10.13
2023-04-19T17:56:40.362Z,10.11
2023-04-19T17:58:02.523Z,10.10
2023-04-19T17:59:27.682Z,10.10
2023-04-19T18:00:50.198Z,10.08
2023-04-19T18:02:15.216Z,10.05
2023-04-19T18:03:50.922Z,10.06
2023-04-19T18:05:16.891Z,9.99
2023-04-19T18:06:44.049Z,10.03
2023-04-19T18:08:06.767Z,10.01
2023-04-19T18:09:30.851Z,10.03
2023-04-19T18:11:03.854Z,10.01
2023-04-19T18:12:33.808Z,9.97
2023-04-19T18:13:56.909Z,9.96
2023-04-19T18:15:26.760Z,9.92
2023-04-19T18:16:49.085Z,9.96
2023-04-19T18:18:13.251Z,9.94
2023-04-19T18:19:37.452Z,9.95
2023-04-19T18:21:02.319Z,9.93
2023-04-19T18:22:27.035Z,9.90
2023-04-19T18:24:00.951Z,9.92
2023-04-19T18:25:27.416Z,9.88
2023-04-19T18:26:52.242Z,9.89
2023-04-19T18:28:16.541Z,9.92
2023-04-19T18:30:22.095Z,9.90
2023-04-19T18:32:28.796Z,9.87
2023-04-19T18:34:03.084Z,9.88
2023-04-19T18:35:27.912Z,9.84
2023-04-19T18:37:01.123Z,9.86
2023-04-19T18:38:29.901Z,9.87
2023-04-19T18:39:54.755Z,9.82
2023-04-19T18:41:22.515Z,9.88
2023-04-19T18:42:54.396Z,9.82
2023-04-19T18:44:34.680Z,9.77
2023-04-19T18:46:08.782Z,9.79
2023-04-19T18:48:50.279Z,9.79
2023-04-19T18:50:02.618Z,9.80
2023-04-19T18:51:33.796Z,9.76
2023-04-19T18:53:04.751Z,9.70
2023-04-19T18:54:35.894Z,9.69
2023-04-19T18:56:01.950Z,9.67
2023-04-19T18:57:28.441Z,9.66
2023-04-19T18:59:02.938Z,9.70
2023-04-19T19:00:31.009Z,9.75
2023-04-19T19:02:40.948Z,9.74
2023-04-19T19:04:46.803Z,9.73
2023-04-19T19:06:26.104Z,9.67
2023-04-19T19:07:50.803Z,9.64
2023-04-19T19:09:26.429Z,9.64
2023-04-19T19:11:18.270Z,9.72
2023-04-19T19:12:49.625Z,9.63
2023-04-19T19:14:30.598Z,9.73
2023-04-19T19:15:56.150Z,9.63
2023-04-19T19:17:32.555Z,9.73
2023-04-19T19:19:08.759Z,9.65
2023-04-19T19:20:45.238Z,9.68
2023-04-19T19:22:22.470Z,9.65
2023-04-19T19:23:59.880Z,9.75
2023-04-19T19:27:37.910Z,9.67
2023-04-19T19:29:02.033Z,9.70
2023-04-19T19:30:34.096Z,9.74
2023-04-19T19:31:58.314Z,9.67
2023-04-19T19:33:23.560Z,9.72
2023-04-19T19:35:08.298Z,9.79
2023-04-19T19:37:14.093Z,9.75
2023-04-19T19:39:37.246Z,9.70
2023-04-19T19:42:04.613Z,9.68
2023-04-19T19:44:07.431Z,9.67
2023-04-19T19:48:09.388Z,9.64
2023-04-19T19:52:28.343Z,9.67
2023-04-19T19:53:52.640Z,9.63
2023-04-19T19:55:26.924Z,9.67
2023-04-19T19:58:47.701Z,9.62
2023-04-19T20:00:36.907Z,9.65
2023-04-19T20:02:09.825Z,9.55
2023-04-19T20:03:54.019Z,9.55
2023-04-19T20:05:30.723Z,9.53
2023-04-19T20:09:01.461Z,9.58
2023-04-19T20:10:27.128Z,9.58
2023-04-19T20:11:49.405Z,9.60
2023-04-19T20:13:13.417Z,9.55
2023-04-19T20:14:37.984Z,9.61
2023-04-19T20:16:06.115Z,9.57
2023-04-19T20:17:32.699Z,9.63
2023-04-19T20:18:58.237Z,9.58
2023-04-19T20:20:35.569Z,9.64
2023-04-19T20:22:20.864Z,9.56
2023-04-19T20:23:55.865Z,9.65
2023-04-19T20:25:40.259Z,9.61
2023-04-19T20:27:02.688Z,9.57
2023-04-19T20:28:27.426Z,9.65
2023-04-19T20:30:13.629Z,9.56
2023-04-19T20:31:38.677Z,9.58
2023-04-19T20:33:03.070Z,9.60
2023-04-19T20:34:26.868Z,9.63
2023-04-19T20:35:49.492Z,9.66
2023-04-19T20:37:14.767Z,9.62
2023-04-19T20:38:40.072Z,9.64
2023-04-19T20:40:06.184Z,9.68
2023-04-19T20:41:28.485Z,9.68
2023-04-19T20:42:54.556Z,9.65
2023-04-19T20:44:24.478Z,9.61
2023-04-19T20:47:49.620Z,9.63
2023-04-19T20:49:18.121Z,9.62
2023-04-19T20:50:40.717Z,9.59
2023-04-19T20:52:04.485Z,9.64
2023-04-19T20:53:30.299Z,9.65
2023-04-19T20:55:10.939Z,9.55
2023-04-19T20:56:33.794Z,9.64
2023-04-19T20:57:59.178Z,9.65
2023-04-19T20:59:22.852Z,9.63
2023-04-19T21:01:17.519Z,9.63
2023-04-19T21:02:39.002Z,9.62
2023-04-19T21:04:09.099Z,9.58
2023-04-19T21:05:38.535Z,9.51
2023-04-19T21:07:01.198Z,9.58
2023-04-19T21:08:26.955Z,9.48
2023-04-19T21:10:03.610Z,9.46
2023-04-19T21:11:26.113Z,9.49
2023-04-19T21:16:01.456Z,9.45
2023-04-19T21:17:35.143Z,9.39
2023-04-19T21:18:57.811Z,9.38
2023-04-19T21:20:19.122Z,9.34
2023-04-19T21:21:42.653Z,9.38
2023-04-19T21:23:05.005Z,9.33
2023-04-19T21:24:27.302Z,9.35
2023-04-19T21:26:03.201Z,9.33
2023-04-19T21:27:26.426Z,9.28
2023-04-19T21:28:48.648Z,9.30
2023-04-19T21:30:23.080Z,9.30
2023-04-19T21:31:45.650Z,9.25
2023-04-19T21:33:08.187Z,9.27
2023-04-19T21:34:30.700Z,9.24
2023-04-19T21:35:51.915Z,9.21
2023-04-19T21:37:16.576Z,9.27
2023-04-19T21:38:39.078Z,9.20
2023-04-19T21:40:02.303Z,9.27
2023-04-19T21:41:50.456Z,9.23
2023-04-19T21:43:13.231Z,9.17
2023-04-19T21:44:35.437Z,9.18
2023-04-19T21:45:57.894Z,9.27
2023-04-19T21:47:22.368Z,9.24
2023-04-19T21:48:44.925Z,9.21
2023-04-19T21:50:08.668Z,9.27
2023-04-19T21:51:40.406Z,9.23
2023-04-19T21:53:04.394Z,9.28
2023-04-19T21:54:33.825Z,9.29
2023-04-19T21:55:56.545Z,9.29
2023-04-19T21:57:22.057Z,9.29
2023-04-19T21:58:44.322Z,9.29
2023-04-19T22:00:09.775Z,9.29
2023-04-19T22:01:31.050Z,9.28
2023-04-19T22:02:55.958Z,9.28
2023-04-19T22:04:20.714Z,9.27
2023-04-19T22:05:46.142Z,9.28
2023-04-19T22:07:28.589Z,9.21
2023-04-19T22:08:51.543Z,9.19
2023-04-19T22:10:29.704Z,9.15
2023-04-19T22:11:58.562Z,9.16
2023-04-19T22:13:22.280Z,9.24
2023-04-19T22:14:50.663Z,9.19
2023-04-19T22:16:47.595Z,9.21
2023-04-19T22:18:15.705Z,9.20
2023-04-19T22:19:38.306Z,9.20
2023-04-19T22:21:03.815Z,9.20
2023-04-19T22:22:26.164Z,9.15
2023-04-19T22:23:48.377Z,9.18
2023-04-19T22:25:12.648Z,9.21
2023-04-19T22:26:34.644Z,9.20
2023-04-19T22:27:55.850Z,9.21
2023-04-19T22:29:18.670Z,9.20
2023-04-19T22:31:26.531Z,9.18
2023-04-19T22:32:52.229Z,9.16
2023-04-19T22:34:14.748Z,9.08
2023-04-19T22:35:36.952Z,9.16
2023-04-19T22:36:59.632Z,9.13
2023-04-19T22:38:33.804Z,9.11
2023-04-19T22:39:55.290Z,9.11
2023-04-19T22:41:19.699Z,9.08
2023-04-19T22:42:44.172Z,9.04
2023-04-19T22:44:14.260Z,9.09
2023-04-19T22:45:39.359Z,9.03
2023-04-19T22:47:00.933Z,9.03
2023-04-19T22:48:23.292Z,9.04
2023-04-19T22:49:45.399Z,9.00
2023-04-19T22:51:08.033Z,9.03
2023-04-19T22:52:29.180Z,9.03
2023-04-19T22:53:56.586Z,8.98
2023-04-19T22:55:19.855Z,9.01
2023-04-19T22:56:52.874Z,9.03
2023-04-19T22:58:15.556Z,9.03
2023-04-19T22:59:36.730Z,9.03
2023-04-19T23:00:59.165Z,9.03
2023-04-19T23:02:21.546Z,8.96
2023-04-19T23:03:52.063Z,9.04
2023-04-19T23:05:13.694Z,9.04
2023-04-19T23:06:45.764Z,9.02
2023-04-19T23:08:09.613Z,9.03
2023-04-19T23:09:30.959Z,8.99
2023-04-19T23:10:53.951Z,9.02
2023-04-19T23:12:17.574Z,9.01
2023-04-19T23:13:41.518Z,9.01
2023-04-19T23:15:04.162Z,8.99
2023-04-19T23:16:26.733Z,9.00
2023-04-19T23:17:48.882Z,8.98
2023-04-19T23:19:12.181Z,8.97
2023-04-19T23:20:34.650Z,8.98
2023-04-19T23:21:57.286Z,8.97
2023-04-19T23:23:20.707Z,8.99
2023-04-19T23:24:43.613Z,8.98
2023-04-19T23:26:05.765Z,8.99
2023-04-19T23:27:28.505Z,8.99
2023-04-19T23:28:50.618Z,9.00
2023-04-19T23:30:14.126Z,9.01
2023-04-19T23:31:36.547Z,9.01
2023-04-19T23:33:00.014Z,9.01
2023-04-19T23:34:22.050Z,8.99
2023-04-19T23:35:46.124Z,9.02
2023-04-19T23:37:11.204Z,9.03
2023-04-19T23:38:39.726Z,9.01
2023-04-19T23:40:00.751Z,9.03
2023-04-19T23:41:23.404Z,9.00
2023-04-19T23:42:46.980Z,9.01
2023-04-19T23:44:09.406Z,9.07
2023-04-19T23:45:30.781Z,9.06
2023-04-19T23:46:53.234Z,9.10
2023-04-19T23:48:14.431Z,9.11
2023-04-19T23:49:40.536Z,9.10
2023-04-19T23:51:02.805Z,9.16
2023-04-19T23:52:25.114Z,9.10
2023-04-19T23:53:47.469Z,9.16
2023-04-19T23:55:10.535Z,9.21
2023-04-19T23:56:32.841Z,9.20
2023-04-19T23:57:54.805Z,9.20
2023-04-19T23:59:19.158Z,9.18
